sensor_id;sensor_type;location;lat;lon;timestamp;pressure;altitude;pressure_sealevel;temperature;humidity
9893;BME280;4985;49.092;8.542;2023-04-20T00:00:59;99370.16;;;16.62;51.68
9893;BME280;4985;49.092;8.542;2023-04-20T00:03:26;99373.63;;;16.62;51.68
9893;BME280;4985;49.092;8.542;2023-04-20T00:05:54;99367.47;;;16.62;51.68
9893;BME280;4985;49.092;8.542;2023-04-20T00:08:21;99359.72;;;16.60;51.69
9893;BME280;4985;49.092;8.542;2023-04-20T00:10:47;99360.53;;;16.60;51.69
9893;BME280;4985;49.092;8.542;2023-04-20T00:13:14;99349.91;;;16.60;51.68
9893;BME280;4985;49.092;8.542;2023-04-20T00:15:40;99349.09;;;16.60;51.67
9893;BME280;4985;49.092;8.542;2023-04-20T00:18:07;99341.94;;;16.60;51.67
9893;BME280;4985;49.092;8.542;2023-04-20T00:20:33;99346.44;;;16.60;51.66
9893;BME280;4985;49.092;8.542;2023-04-20T00:23:02;99336.81;;;16.59;51.66
9893;BME280;4985;49.092;8.542;2023-04-20T00:25:29;99334.16;;;16.59;51.66
9893;BME280;4985;49.092;8.542;2023-04-20T00:27:56;99330.06;;;16.56;51.65
9893;BME280;4985;49.092;8.542;2023-04-20T00:30:23;99329.87;;;16.58;51.66
9893;BME280;4985;49.092;8.542;2023-04-20T00:32:50;99329.87;;;16.58;51.66
9893;BME280;4985;49.092;8.542;2023-04-20T00:35:16;99321.91;;;16.58;51.65
9893;BME280;4985;49.092;8.542;2023-04-20T00:37:43;99318.41;;;16.57;51.65
9893;BME280;4985;49.092;8.542;2023-04-20T00:40:11;99319.25;;;16.58;51.64
9893;BME280;4985;49.092;8.542;2023-04-20T00:42:38;99315.97;;;16.56;51.66
9893;BME280;4985;49.092;8.542;2023-04-20T00:45:05;99306.16;;;16.56;51.65
9893;BME280;4985;49.092;8.542;2023-04-20T00:47:32;99301.66;;;16.57;51.65
9893;BME280;4985;49.092;8.542;2023-04-20T00:49:59;99308.00;;;16.56;51.65
9893;BME280;4985;49.092;8.542;2023-04-20T00:52:26;99301.06;;;16.55;51.65
9893;BME280;4985;49.092;8.542;2023-04-20T00:54:52;99304.53;;;16.55;51.66
9893;BME280;4985;49.092;8.542;2023-04-20T00:57:21;99293.06;;;16.55;51.64
9893;BME280;4985;49.092;8.542;2023-04-20T00:59:48;99295.91;;;16.53;51.66
9893;BME280;4985;49.092;8.542;2023-04-20T01:02:15;99292.25;;;16.54;51.65
9893;BME280;4985;49.092;8.542;2023-04-20T01:04:42;99294.09;;;16.54;51.64
9893;BME280;4985;49.092;8.542;2023-04-20T01:07:09;99279.97;;;16.53;51.65
9893;BME280;4985;49.092;8.542;2023-04-20T01:09:36;99284.47;;;16.53;51.63
9893;BME280;4985;49.092;8.542;2023-04-20T01:12:03;99273.84;;;16.53;51.63
9893;BME280;4985;49.092;8.542;2023-04-20T01:14:31;99275.50;;;16.54;51.63
9893;BME280;4985;49.092;8.542;2023-04-20T01:16:58;99266.88;;;16.52;51.62
9893;BME280;4985;49.092;8.542;2023-04-20T01:19:24;99262.37;;;16.52;51.63
9893;BME280;4985;49.092;8.542;2023-04-20T01:21:51;99260.75;;;16.51;51.61
9893;BME280;4985;49.092;8.542;2023-04-20T01:24:19;99259.94;;;16.51;51.63
9893;BME280;4985;49.092;8.542;2023-04-20T01:26:46;99260.75;;;16.51;51.62
9893;BME280;4985;49.092;8.542;2023-04-20T01:29:12;99250.34;;;16.50;51.62
9893;BME280;4985;49.092;8.542;2023-04-20T01:31:39;99255.66;;;16.50;51.62
9893;BME280;4985;49.092;8.542;2023-04-20T01:34:06;99253.00;;;16.50;51.62
9893;BME280;4985;49.092;8.542;2023-04-20T01:36:32;99243.38;;;16.49;51.63
9893;BME280;4985;49.092;8.542;2023-04-20T01:38:59;99252.16;;;16.49;51.62
9893;BME280;4985;49.092;8.542;2023-04-20T01:41:27;99245.22;;;16.48;51.62
9893;BME280;4985;49.092;8.542;2023-04-20T01:43:53;99240.72;;;16.49;51.62
9893;BME280;4985;49.092;8.542;2023-04-20T01:46:20;99231.13;;;16.48;51.62
9893;BME280;4985;49.092;8.542;2023-04-20T01:48:46;99229.28;;;16.48;51.62
9893;BME280;4985;49.092;8.542;2023-04-20T01:51:13;99226.84;;;16.47;51.63
9893;BME280;4985;49.092;8.542;2023-04-20T01:53:39;99226.84;;;16.47;51.63
9893;BME280;4985;49.092;8.542;2023-04-20T01:56:06;99227.03;;;16.45;51.63
9893;BME280;4985;49.092;8.542;2023-04-20T01:58:34;99223.56;;;16.45;51.63
9893;BME280;4985;49.092;8.542;2023-04-20T02:01:01;99218.25;;;16.45;51.63
9893;BME280;4985;49.092;8.542;2023-04-20T02:03:27;99211.50;;;16.42;51.61
9893;BME280;4985;49.092;8.542;2023-04-20T02:05:54;99212.12;;;16.44;51.62
9893;BME280;4985;49.092;8.542;2023-04-20T02:08:21;99212.12;;;16.44;51.62
9893;BME280;4985;49.092;8.542;2023-04-20T02:10:47;99211.31;;;16.44;51.61
9893;BME280;4985;49.092;8.542;2023-04-20T02:13:14;99208.84;;;16.42;51.62
9893;BME280;4985;49.092;8.542;2023-04-20T02:15:42;99210.66;;;16.42;51.62
9893;BME280;4985;49.092;8.542;2023-04-20T02:18:08;99220.28;;;16.43;51.62
9893;BME280;4985;49.092;8.542;2023-04-20T02:20:35;99217.00;;;16.41;51.63
9893;BME280;4985;49.092;8.542;2023-04-20T02:23:02;99217.00;;;16.41;51.62
9893;BME280;4985;49.092;8.542;2023-04-20T02:25:28;99211.28;;;16.37;51.63
9893;BME280;4985;49.092;8.542;2023-04-20T02:27:55;99212.69;;;16.40;51.63
9893;BME280;4985;49.092;8.542;2023-04-20T02:30:22;99204.72;;;16.40;51.63
9893;BME280;4985;49.092;8.542;2023-04-20T02:32:49;99203.09;;;16.39;51.63
9893;BME280;4985;49.092;8.542;2023-04-20T02:35:16;99205.75;;;16.39;51.63
9893;BME280;4985;49.092;8.542;2023-04-20T02:37:43;99195.13;;;16.39;51.63
9893;BME280;4985;49.092;8.542;2023-04-20T02:40:10;99194.31;;;16.38;51.62
9893;BME280;4985;49.092;8.542;2023-04-20T02:42:37;99195.34;;;16.37;51.62
9893;BME280;4985;49.092;8.542;2023-04-20T02:45:04;99192.69;;;16.37;51.62
9893;BME280;4985;49.092;8.542;2023-04-20T02:47:32;99183.09;;;16.36;51.62
9893;BME280;4985;49.092;8.542;2023-04-20T02:50:00;99183.09;;;16.36;51.62
9893;BME280;4985;49.092;8.542;2023-04-20T02:52:26;99187.56;;;16.36;51.62
9893;BME280;4985;49.092;8.542;2023-04-20T02:54:53;99185.94;;;16.35;51.63
9893;BME280;4985;49.092;8.542;2023-04-20T02:57:19;99183.28;;;16.35;51.61
9893;BME280;4985;49.092;8.542;2023-04-20T02:59:46;99178.78;;;16.35;51.60
9893;BME280;4985;49.092;8.542;2023-04-20T03:02:13;99168.38;;;16.34;51.62
9893;BME280;4985;49.092;8.542;2023-04-20T03:04:39;99163.06;;;16.34;51.62
9893;BME280;4985;49.092;8.542;2023-04-20T03:07:07;99161.44;;;16.33;51.62
9893;BME280;4985;49.092;8.542;2023-04-20T03:09:34;99162.44;;;16.32;51.63
9893;BME280;4985;49.092;8.542;2023-04-20T03:12:01;99159.78;;;16.32;51.64
9893;BME280;4985;49.092;8.542;2023-04-20T03:14:28;99157.13;;;16.32;51.63
9893;BME280;4985;49.092;8.542;2023-04-20T03:16:55;99163.44;;;16.30;51.63
9893;BME280;4985;49.092;8.542;2023-04-20T03:19:21;99164.47;;;16.29;51.64
9893;BME280;4985;49.092;8.542;2023-04-20T03:21:48;99162.63;;;16.30;51.64
9893;BME280;4985;49.092;8.542;2023-04-20T03:24:16;99164.47;;;16.29;51.63
9893;BME280;4985;49.092;8.542;2023-04-20T03:26:43;99153.44;;;16.26;51.62
9893;BME280;4985;49.092;8.542;2023-04-20T03:29:09;99154.03;;;16.28;51.62
9893;BME280;4985;49.092;8.542;2023-04-20T03:31:36;99149.56;;;16.28;51.62
9893;BME280;4985;49.092;8.542;2023-04-20T03:34:03;99156.69;;;16.28;51.63
9893;BME280;4985;49.092;8.542;2023-04-20T03:36:29;99147.91;;;16.27;51.63
9893;BME280;4985;49.092;8.542;2023-04-20T03:38:56;99149.75;;;16.27;51.63
9893;BME280;4985;49.092;8.542;2023-04-20T03:41:24;99154.47;;;16.25;51.64
9893;BME280;4985;49.092;8.542;2023-04-20T03:43:51;99149.16;;;16.25;51.65
9893;BME280;4985;49.092;8.542;2023-04-20T03:46:17;99153.66;;;16.24;51.64
9893;BME280;4985;49.092;8.542;2023-04-20T03:48:44;99146.69;;;16.23;51.64
9893;BME280;4985;49.092;8.542;2023-04-20T03:51:10;99151.00;;;16.24;51.64
9893;BME280;4985;49.092;8.542;2023-04-20T03:53:37;99145.06;;;16.22;51.65
9893;BME280;4985;49.092;8.542;2023-04-20T03:56:04;99145.88;;;16.23;51.65
9893;BME280;4985;49.092;8.542;2023-04-20T03:58:33;99148.75;;;16.21;51.66
9893;BME280;4985;49.092;8.542;2023-04-20T04:01:00;99147.72;;;16.22;51.65
9893;BME280;4985;49.092;8.542;2023-04-20T04:03:27;99149.56;;;16.22;51.65
9893;BME280;4985;49.092;8.542;2023-04-20T04:05:54;99145.28;;;16.21;51.65
9893;BME280;4985;49.092;8.542;2023-04-20T04:08:20;99144.47;;;16.20;51.65
9893;BME280;4985;49.092;8.542;2023-04-20T04:10:47;99133.84;;;16.20;51.66
9893;BME280;4985;49.092;8.542;2023-04-20T04:13:13;99143.62;;;16.20;51.65
9893;BME280;4985;49.092;8.542;2023-04-20T04:15:41;99142.78;;;16.19;51.65
9893;BME280;4985;49.092;8.542;2023-04-20T04:18:08;99144.62;;;16.19;51.66
9893;BME280;4985;49.092;8.542;2023-04-20T04:20:34;99142.19;;;16.17;51.65
9893;BME280;4985;49.092;8.542;2023-04-20T04:23:01;99142.19;;;16.17;51.65
9893;BME280;4985;49.092;8.542;2023-04-20T04:25:27;99144.84;;;16.17;51.64
9893;BME280;4985;49.092;8.542;2023-04-20T04:27:54;99138.91;;;16.15;51.65
9893;BME280;4985;49.092;8.542;2023-04-20T04:30:21;99150.34;;;16.16;51.65
9893;BME280;4985;49.092;8.542;2023-04-20T04:32:49;99150.34;;;16.16;51.65
9893;BME280;4985;49.092;8.542;2023-04-20T04:35:16;99151.38;;;16.15;51.66
9893;BME280;4985;49.092;8.542;2023-04-20T04:37:43;99154.03;;;16.15;51.67
9893;BME280;4985;49.092;8.542;2023-04-20T04:40:09;99151.59;;;16.13;51.66
9893;BME280;4985;49.092;8.542;2023-04-20T04:42:36;99156.09;;;16.13;51.67
9893;BME280;4985;49.092;8.542;2023-04-20T04:45:04;99156.09;;;16.13;51.68
9893;BME280;4985;49.092;8.542;2023-04-20T04:47:33;99155.25;;;16.12;51.67
9893;BME280;4985;49.092;8.542;2023-04-20T04:50:01;99149.13;;;16.12;51.66
9893;BME280;4985;49.092;8.542;2023-04-20T04:52:29;99148.31;;;16.11;51.66
9893;BME280;4985;49.092;8.542;2023-04-20T04:54:56;99147.50;;;16.11;51.66
9893;BME280;4985;49.092;8.542;2023-04-20T04:57:23;99144.03;;;16.10;51.67
9893;BME280;4985;49.092;8.542;2023-04-20T04:59:50;99138.72;;;16.10;51.67
9893;BME280;4985;49.092;8.542;2023-04-20T05:02:16;99141.38;;;16.10;51.66
9893;BME280;4985;49.092;8.542;2023-04-20T05:04:43;99149.34;;;16.10;51.67
9893;BME280;4985;49.092;8.542;2023-04-20T05:07:11;99143.38;;;16.08;51.68
9893;BME280;4985;49.092;8.542;2023-04-20T05:09:38;99140.75;;;16.08;51.67
9893;BME280;4985;49.092;8.542;2023-04-20T05:12:05;99135.84;;;16.05;51.66
9893;BME280;4985;49.092;8.542;2023-04-20T05:14:32;99139.75;;;16.09;51.65
9893;BME280;4985;49.092;8.542;2023-04-20T05:16:59;99143.38;;;16.08;51.64
9893;BME280;4985;49.092;8.542;2023-04-20T05:19:26;99143.38;;;16.08;51.64
9893;BME280;4985;49.092;8.542;2023-04-20T05:21:52;99148.69;;;16.08;51.64
9893;BME280;4985;49.092;8.542;2023-04-20T05:24:20;99141.75;;;16.07;51.64
9893;BME280;4985;49.092;8.542;2023-04-20T05:26:47;99141.75;;;16.07;51.64
9893;BME280;4985;49.092;8.542;2023-04-20T05:29:14;99149.13;;;16.05;51.64
9893;BME280;4985;49.092;8.542;2023-04-20T05:31:41;99143.81;;;16.05;51.64
9893;BME280;4985;49.092;8.542;2023-04-20T05:34:07;99148.28;;;16.05;51.66
9893;BME280;4985;49.092;8.542;2023-04-20T05:36:34;99140.34;;;16.05;51.66
9893;BME280;4985;49.092;8.542;2023-04-20T05:39:01;99142.16;;;16.04;51.67
9893;BME280;4985;49.092;8.542;2023-04-20T05:41:29;99144.00;;;16.04;51.67
9893;BME280;4985;49.092;8.542;2023-04-20T05:43:56;99137.88;;;16.03;51.67
9893;BME280;4985;49.092;8.542;2023-04-20T05:46:22;99137.06;;;16.02;51.67
9893;BME280;4985;49.092;8.542;2023-04-20T05:48:49;99137.28;;;16.01;51.69
9893;BME280;4985;49.092;8.542;2023-04-20T05:51:16;99135.44;;;16.01;51.69
9893;BME280;4985;49.092;8.542;2023-04-20T05:53:42;99131.97;;;16.01;51.71
9893;BME280;4985;49.092;8.542;2023-04-20T05:56:09;99135.62;;;16.00;51.70
9893;BME280;4985;49.092;8.542;2023-04-20T05:58:37;99134.81;;;15.99;51.71
9893;BME280;4985;49.092;8.542;2023-04-20T06:01:04;99139.31;;;15.99;51.71
9893;BME280;4985;49.092;8.542;2023-04-20T06:03:31;99130.31;;;16.00;51.73
9893;BME280;4985;49.092;8.542;2023-04-20T06:05:58;99140.34;;;15.98;51.73
9893;BME280;4985;49.092;8.542;2023-04-20T06:08:25;99142.19;;;15.97;51.74
9893;BME280;4985;49.092;8.542;2023-04-20T06:10:53;99134.22;;;15.97;51.74
9893;BME280;4985;49.092;8.542;2023-04-20T06:13:20;99136.88;;;15.97;51.74
9893;BME280;4985;49.092;8.542;2023-04-20T06:15:48;99133.41;;;15.97;51.75
9893;BME280;4985;49.092;8.542;2023-04-20T06:18:14;99127.25;;;15.96;51.76
9893;BME280;4985;49.092;8.542;2023-04-20T06:20:42;99134.38;;;15.96;51.76
9893;BME280;4985;49.092;8.542;2023-04-20T06:23:08;99128.25;;;15.95;51.76
9893;BME280;4985;49.092;8.542;2023-04-20T06:25:36;99128.47;;;15.94;51.78
9893;BME280;4985;49.092;8.542;2023-04-20T06:28:03;99122.13;;;15.95;51.77
9893;BME280;4985;49.092;8.542;2023-04-20T06:30:30;99125.81;;;15.94;51.79
9893;BME280;4985;49.092;8.542;2023-04-20T06:32:59;99126.63;;;15.94;51.79
9893;BME280;4985;49.092;8.542;2023-04-20T06:35:26;99117.22;;;15.92;51.80
9893;BME280;4985;49.092;8.542;2023-04-20T06:37:53;99120.72;;;15.92;51.82
9893;BME280;4985;49.092;8.542;2023-04-20T06:40:21;99121.72;;;15.91;51.83
9893;BME280;4985;49.092;8.542;2023-04-20T06:42:48;99120.91;;;15.91;51.84
9893;BME280;4985;49.092;8.542;2023-04-20T06:45:14;99117.44;;;15.90;51.84
9893;BME280;4985;49.092;8.542;2023-04-20T06:47:42;99113.97;;;15.90;51.85
9893;BME280;4985;49.092;8.542;2023-04-20T06:50:10;99112.34;;;15.89;51.87
9893;BME280;4985;49.092;8.542;2023-04-20T06:52:38;99112.34;;;15.89;51.88
9893;BME280;4985;49.092;8.542;2023-04-20T06:55:05;99106.59;;;15.85;51.89
9893;BME280;4985;49.092;8.542;2023-04-20T06:57:32;99112.34;;;15.89;51.89
9893;BME280;4985;49.092;8.542;2023-04-20T07:00:00;99107.03;;;15.89;51.91
9893;BME280;4985;49.092;8.542;2023-04-20T07:02:27;99106.59;;;15.85;51.91
9893;BME280;4985;49.092;8.542;2023-04-20T07:04:59;99112.53;;;15.87;51.90
9893;BME280;4985;49.092;8.542;2023-04-20T07:07:27;99107.25;;;15.87;51.91
9893;BME280;4985;49.092;8.542;2023-04-20T07:09:54;99111.53;;;15.88;51.89
9893;BME280;4985;49.092;8.542;2023-04-20T07:12:21;99109.06;;;15.87;51.89
9893;BME280;4985;49.092;8.542;2023-04-20T07:14:47;99109.06;;;15.87;51.89
9893;BME280;4985;49.092;8.542;2023-04-20T07:17:14;99105.59;;;15.86;51.90
9893;BME280;4985;49.092;8.542;2023-04-20T07:19:40;99107.44;;;15.86;51.94
9893;BME280;4985;49.092;8.542;2023-04-20T07:22:07;99102.13;;;15.86;51.94
9893;BME280;4985;49.092;8.542;2023-04-20T07:24:35;99093.31;;;15.85;51.92
9893;BME280;4985;49.092;8.542;2023-04-20T07:27:01;99098.62;;;15.85;51.94
9893;BME280;4985;49.092;8.542;2023-04-20T07:29:28;99095.97;;;15.85;51.94
9893;BME280;4985;49.092;8.542;2023-04-20T07:31:54;99102.13;;;15.86;51.96
9893;BME280;4985;49.092;8.542;2023-04-20T07:34:21;99100.47;;;15.85;51.96
9893;BME280;4985;49.092;8.542;2023-04-20T07:36:48;99095.16;;;15.85;51.96
9893;BME280;4985;49.092;8.542;2023-04-20T07:39:15;99089.03;;;15.84;51.95
9893;BME280;4985;49.092;8.542;2023-04-20T07:41:43;99089.84;;;15.85;51.94
9893;BME280;4985;49.092;8.542;2023-04-20T07:44:11;99089.03;;;15.84;51.95
9893;BME280;4985;49.092;8.542;2023-04-20T07:46:38;99091.91;;;15.83;51.94
9893;BME280;4985;49.092;8.542;2023-04-20T07:49:05;99086.59;;;15.83;51.97
9893;BME280;4985;49.092;8.542;2023-04-20T07:51:31;99086.59;;;15.83;51.99
9893;BME280;4985;49.092;8.542;2023-04-20T07:53:58;99087.41;;;15.83;51.99
9893;BME280;4985;49.092;8.542;2023-04-20T07:56:25;99084.94;;;15.82;52.02
9893;BME280;4985;49.092;8.542;2023-04-20T07:58:53;99091.91;;;15.83;52.01
9893;BME280;4985;49.092;8.542;2023-04-20T08:01:22;99083.94;;;15.83;52.01
9893;BME280;4985;49.092;8.542;2023-04-20T08:03:49;99081.28;;;15.83;51.99
9893;BME280;4985;49.092;8.542;2023-04-20T08:06:16;99075.97;;;15.83;51.98
9893;BME280;4985;49.092;8.542;2023-04-20T08:08:42;99069.84;;;15.82;52.00
9893;BME280;4985;49.092;8.542;2023-04-20T08:11:09;99075.97;;;15.83;51.99
9893;BME280;4985;49.092;8.542;2023-04-20T08:13:37;99083.94;;;15.83;52.00
9893;BME280;4985;49.092;8.542;2023-04-20T08:16:05;99083.12;;;15.82;52.01
9893;BME280;4985;49.092;8.542;2023-04-20T08:18:31;99079.66;;;15.82;52.01
9893;BME280;4985;49.092;8.542;2023-04-20T08:20:58;99078.00;;;15.81;52.05
9893;BME280;4985;49.092;8.542;2023-04-20T08:23:25;99070.06;;;15.81;52.04
9893;BME280;4985;49.092;8.542;2023-04-20T08:25:52;99060.88;;;15.77;52.03
9893;BME280;4985;49.092;8.542;2023-04-20T08:28:18;99063.72;;;15.82;52.04
9893;BME280;4985;49.092;8.542;2023-04-20T08:30:45;99062.09;;;15.81;52.03
9893;BME280;4985;49.092;8.542;2023-04-20T08:33:13;99063.94;;;15.80;52.06
9893;BME280;4985;49.092;8.542;2023-04-20T08:35:40;99060.47;;;15.80;52.08
9893;BME280;4985;49.092;8.542;2023-04-20T08:38:06;99054.94;;;15.75;52.09
9893;BME280;4985;49.092;8.542;2023-04-20T08:40:34;99057.00;;;15.79;52.09
9893;BME280;4985;49.092;8.542;2023-04-20T08:43:02;99058.81;;;15.79;52.13
9893;BME280;4985;49.092;8.542;2023-04-20T08:45:29;99052.69;;;15.78;52.16
9893;BME280;4985;49.092;8.542;2023-04-20T08:47:57;99058.81;;;15.79;52.17
9893;BME280;4985;49.092;8.542;2023-04-20T08:50:25;99053.50;;;15.79;52.16
9893;BME280;4985;49.092;8.542;2023-04-20T08:52:51;99050.88;;;15.79;52.14
9893;BME280;4985;49.092;8.542;2023-04-20T08:55:18;99052.50;;;15.80;52.14
9893;BME280;4985;49.092;8.542;2023-04-20T08:57:46;99044.53;;;15.80;52.15
9893;BME280;4985;49.092;8.542;2023-04-20T09:00:14;99041.88;;;15.80;52.15
9893;BME280;4985;49.092;8.542;2023-04-20T09:02:48;99057.59;;;15.81;52.14
9893;BME280;4985;49.092;8.542;2023-04-20T09:05:25;99040.84;;;15.81;52.13
9893;BME280;4985;49.092;8.542;2023-04-20T09:07:52;99046.16;;;15.81;52.12
9893;BME280;4985;49.092;8.542;2023-04-20T09:10:19;99044.31;;;15.81;52.14
9893;BME280;4985;49.092;8.542;2023-04-20T09:12:48;99047.19;;;15.80;52.15
9893;BME280;4985;49.092;8.542;2023-04-20T09:15:24;99040.84;;;15.81;52.17
9893;BME280;4985;49.092;8.542;2023-04-20T09:17:51;99045.56;;;15.79;52.17
9893;BME280;4985;49.092;8.542;2023-04-20T09:20:27;99039.22;;;15.80;52.19
9893;BME280;4985;49.092;8.542;2023-04-20T09:22:54;99039.22;;;15.80;52.22
9893;BME280;4985;49.092;8.542;2023-04-20T09:25:23;99044.53;;;15.80;52.24
9893;BME280;4985;49.092;8.542;2023-04-20T09:27:55;99049.84;;;15.80;52.25
9893;BME280;4985;49.092;8.542;2023-04-20T09:30:22;99038.41;;;15.79;52.26
9893;BME280;4985;49.092;8.542;2023-04-20T09:33:00;99037.59;;;15.79;52.28
9893;BME280;4985;49.092;8.542;2023-04-20T09:35:28;99037.59;;;15.79;52.28
9893;BME280;4985;49.092;8.542;2023-04-20T09:37:55;99036.56;;;15.80;52.27
9893;BME280;4985;49.092;8.542;2023-04-20T09:40:23;99041.88;;;15.80;52.27
9893;BME280;4985;49.092;8.542;2023-04-20T09:42:50;99036.38;;;15.81;52.28
9893;BME280;4985;49.092;8.542;2023-04-20T09:45:18;99033.91;;;15.80;52.27
9893;BME280;4985;49.092;8.542;2023-04-20T09:47:46;99033.91;;;15.80;52.28
9893;BME280;4985;49.092;8.542;2023-04-20T09:50:15;99033.91;;;15.80;52.29
9893;BME280;4985;49.092;8.542;2023-04-20T09:52:44;99025.75;;;15.81;52.30
9893;BME280;4985;49.092;8.542;2023-04-20T09:55:13;99030.25;;;15.81;52.31
9893;BME280;4985;49.092;8.542;2023-04-20T09:57:41;99024.94;;;15.81;52.31
9893;BME280;4985;49.092;8.542;2023-04-20T10:00:08;99022.28;;;15.81;52.32
9893;BME280;4985;49.092;8.542;2023-04-20T10:02:37;99019.63;;;15.81;52.35
9893;BME280;4985;49.092;8.542;2023-04-20T10:05:05;99024.94;;;15.81;52.35
9893;BME280;4985;49.092;8.542;2023-04-20T10:07:31;99021.25;;;15.82;52.33
9893;BME280;4985;49.092;8.542;2023-04-20T10:10:08;99018.41;;;15.83;52.32
9893;BME280;4985;49.092;8.542;2023-04-20T10:12:48;99021.03;;;15.83;52.33
9893;BME280;4985;49.092;8.542;2023-04-20T10:15:15;99022.88;;;15.83;52.33
9893;BME280;4985;49.092;8.542;2023-04-20T10:17:43;99022.88;;;15.83;52.35
9893;BME280;4985;49.092;8.542;2023-04-20T10:20:20;99021.25;;;15.82;52.37
9893;BME280;4985;49.092;8.542;2023-04-20T10:22:47;99015.94;;;15.82;52.38
9893;BME280;4985;49.092;8.542;2023-04-20T10:25:16;99017.59;;;15.83;52.38
9893;BME280;4985;49.092;8.542;2023-04-20T10:27:54;99012.28;;;15.83;52.38
9893;BME280;4985;49.092;8.542;2023-04-20T10:30:21;99000.22;;;15.80;52.40
9893;BME280;4985;49.092;8.542;2023-04-20T10:32:48;99004.31;;;15.83;52.37
9893;BME280;4985;49.092;8.542;2023-04-20T10:35:15;99005.94;;;15.84;52.37
9893;BME280;4985;49.092;8.542;2023-04-20T10:37:49;99003.28;;;15.84;52.36
9893;BME280;4985;49.092;8.542;2023-04-20T10:40:23;98998.78;;;15.84;52.33
9893;BME280;4985;49.092;8.542;2023-04-20T10:42:50;99001.28;;;15.86;52.31
9893;BME280;4985;49.092;8.542;2023-04-20T10:45:17;98996.97;;;15.85;52.30
9893;BME280;4985;49.092;8.542;2023-04-20T10:47:45;99000.41;;;15.85;52.31
9893;BME280;4985;49.092;8.542;2023-04-20T10:50:13;99001.28;;;15.86;52.31
9893;BME280;4985;49.092;8.542;2023-04-20T10:52:41;98995.97;;;15.86;52.33
9893;BME280;4985;49.092;8.542;2023-04-20T10:55:18;98991.47;;;15.86;52.35
9893;BME280;4985;49.092;8.542;2023-04-20T10:57:45;98973.28;;;15.83;52.34
9893;BME280;4985;49.092;8.542;2023-04-20T11:00:14;98984.31;;;15.87;52.36
9893;BME280;4985;49.092;8.542;2023-04-20T11:02:45;98971.06;;;15.87;52.37
9893;BME280;4985;49.092;8.542;2023-04-20T11:05:13;98969.22;;;15.87;52.39
9893;BME280;4985;49.092;8.542;2023-04-20T11:07:46;98966.56;;;15.87;52.41
9893;BME280;4985;49.092;8.542;2023-04-20T11:10:13;98959.19;;;15.89;52.40
9893;BME280;4985;49.092;8.542;2023-04-20T11:12:41;98960.81;;;15.90;52.38
9893;BME280;4985;49.092;8.542;2023-04-20T11:15:08;98950.22;;;15.90;52.37
9893;BME280;4985;49.092;8.542;2023-04-20T11:17:36;98961.66;;;15.91;52.40
9893;BME280;4985;49.092;8.542;2023-04-20T11:20:04;98948.38;;;15.91;52.40
9893;BME280;4985;49.092;8.542;2023-04-20T11:22:34;98949.41;;;15.90;52.43
9893;BME280;4985;49.092;8.542;2023-04-20T11:25:05;98945.72;;;15.91;52.45
9893;BME280;4985;49.092;8.542;2023-04-20T11:27:31;98941.22;;;15.91;52.44
9893;BME280;4985;49.092;8.542;2023-04-20T11:30:00;98944.69;;;15.92;52.44
9893;BME280;4985;49.092;8.542;2023-04-20T11:32:30;98946.53;;;15.91;52.44
9893;BME280;4985;49.092;8.542;2023-04-20T11:34:58;98946.53;;;15.91;52.43
9893;BME280;4985;49.092;8.542;2023-04-20T11:37:25;98945.50;;;15.92;52.44
9893;BME280;4985;49.092;8.542;2023-04-20T11:40:02;98948.97;;;15.93;52.42
9893;BME280;4985;49.092;8.542;2023-04-20T11:42:32;98942.03;;;15.92;52.41
9893;BME280;4985;49.092;8.542;2023-04-20T11:45:00;98948.97;;;15.93;52.41
9893;BME280;4985;49.092;8.542;2023-04-20T11:47:26;98954.28;;;15.93;52.39
9893;BME280;4985;49.092;8.542;2023-04-20T11:49:53;98946.31;;;15.93;52.40
9893;BME280;4985;49.092;8.542;2023-04-20T11:52:20;98952.25;;;15.95;52.39
9893;BME280;4985;49.092;8.542;2023-04-20T11:54:46;98952.25;;;15.95;52.37
9893;BME280;4985;49.092;8.542;2023-04-20T11:57:13;98952.25;;;15.95;52.37
9893;BME280;4985;49.092;8.542;2023-04-20T11:59:40;98954.88;;;15.95;52.36
9893;BME280;4985;49.092;8.542;2023-04-20T12:02:08;98953.06;;;15.95;52.33
9893;BME280;4985;49.092;8.542;2023-04-20T12:04:35;98957.97;;;15.98;52.29
9893;BME280;4985;49.092;8.542;2023-04-20T12:07:03;98964.31;;;15.97;52.26
9893;BME280;4985;49.092;8.542;2023-04-20T12:09:29;98960.41;;;16.00;52.22
9893;BME280;4985;49.092;8.542;2023-04-20T12:12:00;98967.34;;;16.01;52.18
9893;BME280;4985;49.092;8.542;2023-04-20T12:14:27;98971.84;;;16.00;52.15
9893;BME280;4985;49.092;8.542;2023-04-20T12:16:53;98977.16;;;16.00;52.13
9893;BME280;4985;49.092;8.542;2023-04-20T12:19:21;98977.97;;;16.01;52.13
9893;BME280;4985;49.092;8.542;2023-04-20T12:21:48;98977.16;;;16.00;52.13
9893;BME280;4985;49.092;8.542;2023-04-20T12:24:15;98982.47;;;16.00;52.14
9893;BME280;4985;49.092;8.542;2023-04-20T12:26:41;98984.09;;;16.01;52.13
9893;BME280;4985;49.092;8.542;2023-04-20T12:29:08;98984.91;;;16.02;52.12
9893;BME280;4985;49.092;8.542;2023-04-20T12:31:34;98977.75;;;16.02;52.10
9893;BME280;4985;49.092;8.542;2023-04-20T12:34:01;98974.28;;;16.02;52.10
9893;BME280;4985;49.092;8.542;2023-04-20T12:36:29;98983.06;;;16.02;52.09
9893;BME280;4985;49.092;8.542;2023-04-20T12:38:56;98987.56;;;16.02;52.11
9893;BME280;4985;49.092;8.542;2023-04-20T12:41:23;98984.09;;;16.01;52.12
9893;BME280;4985;49.092;8.542;2023-04-20T12:43:50;98984.91;;;16.02;52.11
9893;BME280;4985;49.092;8.542;2023-04-20T12:46:17;98983.06;;;16.02;52.12
9893;BME280;4985;49.092;8.542;2023-04-20T12:48:43;98990.22;;;16.02;52.11
9893;BME280;4985;49.092;8.542;2023-04-20T12:51:10;98982.25;;;16.02;52.11
9893;BME280;4985;49.092;8.542;2023-04-20T12:53:38;98985.94;;;16.01;52.11
9893;BME280;4985;49.092;8.542;2023-04-20T12:56:06;98980.63;;;16.01;52.11
9893;BME280;4985;49.092;8.542;2023-04-20T12:58:32;98975.31;;;16.01;52.10
9893;BME280;4985;49.092;8.542;2023-04-20T13:00:59;98979.59;;;16.02;52.09
9893;BME280;4985;49.092;8.542;2023-04-20T13:03:25;98979.59;;;16.02;52.08
9893;BME280;4985;49.092;8.542;2023-04-20T13:05:52;98973.47;;;16.01;52.06
9893;BME280;4985;49.092;8.542;2023-04-20T13:08:18;98975.94;;;16.03;52.06
9893;BME280;4985;49.092;8.542;2023-04-20T13:10:47;98969.81;;;16.02;52.04
9893;BME280;4985;49.092;8.542;2023-04-20T13:13:13;98970.63;;;16.03;52.04
9893;BME280;4985;49.092;8.542;2023-04-20T13:15:40;98975.13;;;16.02;52.03
9893;BME280;4985;49.092;8.542;2023-04-20T13:18:06;98973.47;;;16.01;52.04
9893;BME280;4985;49.092;8.542;2023-04-20T13:20:34;98981.44;;;16.01;52.05
9893;BME280;4985;49.092;8.542;2023-04-20T13:23:01;98972.28;;;15.97;52.03